createdAt,value
2022-10-22T00:02:28.788Z,29.42
2022-10-22T00:04:59.297Z,29.56
2022-10-22T00:07:29.816Z,29.60
2022-10-22T00:10:00.307Z,29.60
2022-10-22T00:12:30.753Z,29.57
2022-10-22T00:15:01.147Z,29.58
2022-10-22T00:17:32.340Z,29.55
2022-10-22T00:20:02.757Z,29.77
2022-10-22T00:22:33.246Z,29.81
2022-10-22T00:25:03.671Z,29.83
2022-10-22T00:27:34.167Z,29.89
2022-10-22T00:30:04.796Z,29.88
2022-10-22T00:32:35.241Z,29.97
2022-10-22T00:35:06.827Z,29.95
2022-10-22T00:37:37.214Z,29.98
2022-10-22T00:40:08.254Z,30.05
2022-10-22T00:42:39.656Z,30.06
2022-10-22T00:45:12.965Z,30.12
2022-10-22T00:47:45.041Z,29.78
2022-10-22T00:50:37.932Z,30.20
2022-10-22T00:53:24.431Z,30.21
2022-10-22T00:55:55.998Z,30.01
2022-10-22T00:58:30.444Z,30.11
2022-10-22T01:01:01.336Z,30.06
2022-10-22T01:03:32.976Z,30.08
2022-10-22T01:06:06.595Z,29.57
2022-10-22T01:09:01.873Z,29.99
2022-10-22T01:11:59.746Z,29.99
2022-10-22T01:14:41.043Z,29.61
2022-10-22T01:17:15.493Z,30.04
2022-10-22T01:22:40.355Z,30.55
2022-10-22T01:25:33.552Z,30.12
2022-10-22T01:28:21.743Z,30.10
2022-10-22T01:30:55.824Z,29.76
2022-10-22T01:33:27.897Z,29.63
2022-10-22T01:36:01.042Z,29.90
2022-10-22T01:38:32.227Z,30.06
2022-10-22T01:41:03.874Z,30.15
2022-10-22T01:43:34.248Z,30.04
2022-10-22T01:46:07.632Z,29.78
2022-10-22T01:48:49.607Z,30.21
2022-10-22T01:51:36.899Z,30.21
2022-10-22T01:54:26.220Z,30.18
2022-10-22T01:57:14.779Z,30.19
2022-10-22T02:00:03.224Z,30.21
2022-10-22T02:03:05.349Z,29.79
2022-10-22T02:05:55.470Z,29.85
2022-10-22T02:08:32.050Z,30.22
2022-10-22T02:11:03.627Z,30.32
2022-10-22T02:13:43.478Z,30.25
2022-10-22T02:16:19.535Z,30.33
2022-10-22T02:18:54.277Z,30.35
2022-10-22T02:21:25.539Z,30.35
2022-10-22T02:23:56.187Z,30.26
2022-10-22T02:26:36.034Z,29.79
2022-10-22T02:29:32.677Z,30.21
2022-10-22T02:32:05.067Z,30.46
2022-10-22T02:34:36.068Z,30.43
2022-10-22T02:37:07.796Z,30.04
2022-10-22T02:39:40.245Z,30.49
2022-10-22T02:42:13.136Z,30.42
2022-10-22T02:44:43.614Z,30.54
2022-10-22T02:47:14.071Z,30.43
2022-10-22T02:49:44.361Z,30.55
2022-10-22T02:52:15.341Z,30.59
2022-10-22T02:54:45.753Z,30.56
2022-10-22T02:57:16.270Z,30.57
2022-10-22T02:59:46.692Z,30.57
2022-10-22T03:02:17.698Z,30.49
2022-10-22T03:04:48.113Z,30.60
2022-10-22T03:07:18.506Z,30.55
2022-10-22T03:09:49.756Z,30.59
2022-10-22T03:12:20.083Z,30.61
2022-10-22T03:14:50.515Z,30.31
2022-10-22T03:17:21.063Z,30.60
2022-10-22T03:19:51.465Z,30.64
2022-10-22T03:22:28.985Z,30.55
2022-10-22T03:25:08.928Z,30.65
2022-10-22T03:27:42.102Z,30.62
2022-10-22T03:30:14.509Z,30.60
2022-10-22T03:32:45.682Z,30.67
2022-10-22T03:35:16.187Z,30.71
2022-10-22T03:37:46.694Z,30.71
2022-10-22T03:40:17.298Z,30.58
2022-10-22T03:42:48.339Z,30.76
2022-10-22T03:45:18.888Z,30.70
2022-10-22T03:47:49.249Z,30.77
2022-10-22T03:50:20.286Z,30.72
2022-10-22T03:52:50.797Z,30.78
2022-10-22T03:55:21.271Z,30.80
2022-10-22T03:57:51.897Z,30.78
2022-10-22T04:00:22.431Z,30.79
2022-10-22T04:02:52.759Z,30.97
2022-10-22T04:05:23.219Z,31.01
2022-10-22T04:07:53.576Z,31.18
2022-10-22T04:10:24.086Z,31.25
2022-10-22T04:12:54.619Z,31.31
2022-10-22T04:15:27.861Z,31.35
2022-10-22T04:17:58.323Z,31.40
2022-10-22T04:20:28.677Z,31.29
2022-10-22T04:22:59.060Z,31.47
2022-10-22T04:25:29.422Z,31.49
2022-10-22T04:27:59.802Z,31.52
2022-10-22T04:30:30.813Z,31.54
2022-10-22T04:33:01.232Z,31.58
2022-10-22T04:35:31.748Z,31.59
2022-10-22T04:38:02.101Z,31.63
2022-10-22T04:40:32.635Z,31.64
2022-10-22T04:43:02.987Z,31.67
2022-10-22T04:45:37.689Z,31.66
2022-10-22T04:48:08.402Z,31.68
2022-10-22T04:50:38.884Z,31.72
2022-10-22T04:53:09.326Z,31.74
2022-10-22T04:55:39.786Z,31.76
2022-10-22T04:58:10.225Z,31.79
2022-10-22T05:00:40.729Z,31.80
2022-10-22T05:03:11.210Z,31.81
2022-10-22T05:05:41.828Z,31.85
2022-10-22T05:08:12.254Z,31.88
2022-10-22T05:10:42.720Z,31.88
2022-10-22T05:13:13.162Z,31.92
2022-10-22T05:15:43.906Z,31.95
2022-10-22T05:18:15.848Z,31.97
2022-10-22T05:20:47.374Z,31.99
2022-10-22T05:23:17.870Z,32.02
2022-10-22T05:25:48.292Z,32.04
2022-10-22T05:28:18.635Z,32.05
2022-10-22T05:30:57.081Z,31.53
2022-10-22T05:33:28.371Z,32.08
2022-10-22T05:35:59.124Z,31.95
2022-10-22T05:38:29.565Z,32.01
2022-10-22T05:41:05.582Z,32.10
2022-10-22T05:43:36.813Z,32.11
2022-10-22T05:46:40.583Z,32.01
2022-10-22T05:49:15.454Z,32.12
2022-10-22T05:51:46.030Z,32.14
2022-10-22T05:54:23.153Z,31.70
2022-10-22T05:56:53.535Z,32.21
2022-10-22T05:59:23.863Z,32.22
2022-10-22T06:01:54.395Z,32.25
2022-10-22T06:04:24.938Z,32.25
2022-10-22T06:09:42.279Z,32.26
2022-10-22T06:12:15.004Z,32.28
2022-10-22T06:14:46.772Z,32.31
2022-10-22T06:17:29.594Z,32.30
2022-10-22T06:20:00.123Z,32.30
2022-10-22T06:22:30.709Z,32.32
2022-10-22T06:25:01.197Z,32.28
2022-10-22T06:27:36.277Z,32.32
2022-10-22T06:30:07.168Z,32.36
2022-10-22T06:32:38.393Z,32.28
2022-10-22T06:35:09.428Z,32.35
2022-10-22T06:37:40.269Z,32.40
2022-10-22T06:40:12.024Z,32.39
2022-10-22T06:42:43.093Z,32.41
2022-10-22T06:45:13.649Z,32.40
2022-10-22T06:47:44.252Z,32.40
2022-10-22T06:50:14.673Z,32.44
2022-10-22T06:52:45.699Z,32.39
2022-10-22T06:55:16.118Z,32.45
2022-10-22T06:57:46.653Z,32.45
2022-10-22T07:00:17.418Z,32.44
2022-10-22T07:02:57.617Z,32.10
2022-10-22T07:05:46.607Z,31.75
2022-10-22T07:08:16.821Z,31.94
2022-10-22T07:10:47.828Z,31.87
2022-10-22T07:13:18.230Z,31.74
2022-10-22T07:15:58.139Z,31.54
2022-10-22T07:18:28.645Z,31.53
2022-10-22T07:20:59.225Z,31.36
2022-10-22T07:23:30.726Z,31.40
2022-10-22T07:26:03.504Z,31.26
2022-10-22T07:28:34.506Z,31.21
2022-10-22T07:31:05.359Z,31.21
2022-10-22T07:33:36.412Z,31.14
2022-10-22T07:36:09.960Z,31.13
2022-10-22T07:38:45.925Z,31.09
2022-10-22T07:41:18.880Z,31.08
2022-10-22T07:43:50.105Z,31.04
2022-10-22T07:46:21.215Z,31.10
2022-10-22T07:48:51.965Z,31.07
2022-10-22T07:51:22.787Z,31.05
2022-10-22T07:53:53.385Z,30.93
2022-10-22T07:56:24.004Z,31.07
2022-10-22T07:58:54.588Z,31.03
2022-10-22T08:01:25.893Z,31.04
2022-10-22T08:03:56.563Z,30.98
2022-10-22T08:06:27.222Z,31.03
2022-10-22T08:08:57.829Z,31.02
2022-10-22T08:11:28.588Z,31.04
2022-10-22T08:13:59.157Z,31.02
2022-10-22T08:16:31.357Z,31.00
2022-10-22T08:19:01.989Z,31.03
2022-10-22T08:21:32.640Z,30.95
2022-10-22T08:24:03.329Z,30.90
2022-10-22T08:26:34.072Z,31.06
2022-10-22T08:29:05.005Z,30.96
2022-10-22T08:31:36.182Z,31.05
2022-10-22T08:34:06.757Z,31.06
2022-10-22T08:36:37.454Z,31.03
2022-10-22T08:39:08.159Z,31.27
2022-10-22T08:41:51.138Z,30.91
2022-10-22T08:45:00.263Z,31.00
2022-10-22T08:47:56.419Z,31.50
2022-10-22T08:50:39.299Z,31.15
2022-10-22T08:53:19.401Z,31.32
2022-10-22T08:55:54.094Z,31.85
2022-10-22T08:59:07.010Z,31.31
2022-10-22T09:01:41.585Z,31.93
2022-10-22T09:04:39.442Z,32.10
2022-10-22T09:07:11.799Z,32.09
2022-10-22T09:09:49.214Z,32.15
2022-10-22T09:12:21.852Z,32.11
2022-10-22T09:14:53.213Z,32.17
2022-10-22T09:17:35.147Z,32.13
2022-10-22T09:20:18.140Z,31.90
2022-10-22T09:23:07.310Z,32.18
2022-10-22T09:25:38.925Z,32.08
2022-10-22T09:28:11.526Z,32.20
2022-10-22T09:30:42.739Z,32.21
2022-10-22T09:33:18.248Z,32.45
2022-10-22T09:35:56.382Z,32.23
2022-10-22T09:38:30.499Z,32.23
2022-10-22T09:41:06.363Z,31.95
2022-10-22T09:43:37.201Z,32.43
2022-10-22T09:46:30.707Z,32.33
2022-10-22T09:49:12.848Z,32.35
2022-10-22T09:51:49.822Z,32.13
2022-10-22T09:54:26.441Z,32.58
2022-10-22T09:57:06.134Z,32.74
2022-10-22T09:59:42.340Z,32.85
2022-10-22T10:02:40.525Z,32.96
2022-10-22T10:05:19.186Z,33.00
2022-10-22T10:07:49.763Z,33.02
2022-10-22T10:10:35.855Z,32.65
2022-10-22T10:13:09.599Z,33.11
2022-10-22T10:16:05.677Z,32.65
2022-10-22T10:18:52.643Z,32.33
2022-10-22T10:21:40.015Z,32.47
2022-10-22T10:24:23.753Z,33.06
2022-10-22T10:27:19.573Z,33.08
2022-10-22T10:30:10.923Z,33.08
2022-10-22T10:33:06.265Z,33.15
2022-10-22T10:35:48.354Z,33.13
2022-10-22T10:38:18.427Z,32.90
2022-10-22T10:40:53.275Z,33.15
2022-10-22T10:43:36.335Z,33.19
2022-10-22T10:46:31.208Z,33.17
2022-10-22T10:49:12.195Z,32.27
2022-10-22T10:52:21.305Z,33.08
2022-10-22T10:55:21.979Z,33.07
2022-10-22T10:58:16.720Z,32.75
2022-10-22T11:01:25.355Z,33.02
2022-10-22T11:04:16.025Z,33.10
2022-10-22T11:06:48.274Z,32.98
2022-10-22T11:09:40.597Z,32.49
2022-10-22T11:12:23.631Z,32.65
2022-10-22T11:15:15.579Z,32.95
2022-10-22T11:17:47.758Z,32.69
2022-10-22T11:21:12.343Z,32.46
2022-10-22T11:24:00.274Z,31.87
2022-10-22T11:27:01.761Z,31.78
2022-10-22T11:29:40.301Z,32.22
2022-10-22T11:32:20.901Z,32.08
2022-10-22T11:34:58.330Z,31.32
2022-10-22T11:37:36.621Z,31.74
2022-10-22T11:40:23.714Z,31.65
2022-10-22T11:43:05.938Z,31.49
2022-10-22T11:45:43.995Z,31.53
2022-10-22T11:48:20.617Z,31.46
2022-10-22T11:51:09.504Z,31.37
2022-10-22T11:53:40.744Z,30.74
2022-10-22T11:56:14.402Z,31.26
2022-10-22T11:58:52.245Z,31.17
2022-10-22T12:01:49.336Z,30.98
2022-10-22T12:04:24.581Z,31.10
2022-10-22T12:06:58.938Z,31.01
2022-10-22T12:09:33.295Z,30.51
2022-10-22T12:12:16.429Z,30.48
2022-10-22T12:14:57.291Z,30.86
2022-10-22T12:17:29.966Z,30.75
2022-10-22T12:20:15.483Z,30.87
2022-10-22T12:22:47.565Z,30.81
2022-10-22T12:25:24.205Z,30.41
2022-10-22T12:27:58.315Z,30.64
2022-10-22T12:30:35.877Z,30.72
2022-10-22T12:33:09.374Z,30.71
2022-10-22T12:35:47.972Z,30.62
2022-10-22T12:38:26.766Z,30.19
2022-10-22T12:40:58.723Z,29.98
2022-10-22T12:43:30.125Z,30.31
2022-10-22T12:46:01.190Z,30.51
2022-10-22T12:48:41.244Z,30.34
2022-10-22T12:51:20.849Z,30.00
2022-10-22T12:53:59.615Z,30.32
2022-10-22T12:56:35.841Z,30.44
2022-10-22T12:59:19.440Z,29.82
2022-10-22T13:01:52.081Z,29.99
2022-10-22T13:04:24.895Z,30.35
2022-10-22T13:07:26.875Z,30.49
2022-10-22T13:10:03.136Z,30.56
2022-10-22T13:12:39.542Z,30.63
2022-10-22T13:15:34.902Z,30.55
2022-10-22T13:18:19.842Z,30.63
2022-10-22T13:21:03.601Z,30.56
2022-10-22T13:23:35.577Z,30.16
2022-10-22T13:26:14.587Z,30.54
2022-10-22T13:28:52.909Z,30.64
2022-10-22T13:31:35.335Z,30.18
2022-10-22T13:34:13.978Z,30.63
2022-10-22T13:36:45.605Z,30.62
2022-10-22T13:39:24.605Z,30.59
2022-10-22T13:41:55.020Z,30.49
2022-10-22T13:44:25.998Z,30.61
2022-10-22T13:46:57.682Z,30.58
2022-10-22T13:49:28.192Z,30.58
2022-10-22T13:52:00.129Z,30.58
2022-10-22T13:54:30.208Z,30.24
2022-10-22T13:57:00.889Z,30.32
2022-10-22T13:59:31.897Z,30.27
2022-10-22T14:02:07.588Z,30.23
2022-10-22T14:04:41.829Z,29.67
2022-10-22T14:07:18.829Z,30.04
2022-10-22T14:09:49.246Z,30.14
2022-10-22T14:12:19.671Z,30.07
2022-10-22T14:14:50.100Z,29.92
2022-10-22T14:17:20.641Z,30.04
2022-10-22T14:19:51.391Z,30.02
2022-10-22T14:22:23.060Z,29.96
2022-10-22T14:24:53.704Z,29.98
2022-10-22T14:27:24.451Z,30.03
2022-10-22T14:29:59.289Z,30.06
2022-10-22T14:32:30.640Z,29.92
2022-10-22T14:35:02.275Z,29.99
2022-10-22T14:37:34.855Z,29.93
2022-10-22T14:40:05.626Z,30.01
2022-10-22T14:42:41.730Z,29.47
2022-10-22T14:45:30.541Z,29.91
2022-10-22T14:48:01.174Z,29.94
2022-10-22T14:50:31.541Z,29.94
2022-10-22T14:53:01.885Z,29.94
2022-10-22T14:55:32.551Z,29.94
2022-10-22T14:58:03.484Z,29.84
2022-10-22T15:00:35.529Z,29.97
2022-10-22T15:03:05.417Z,29.64
2022-10-22T15:05:37.263Z,29.77
2022-10-22T15:08:07.922Z,29.91
2022-10-22T15:10:38.330Z,29.92
2022-10-22T15:13:08.933Z,29.89
2022-10-22T15:15:42.564Z,29.37
2022-10-22T15:18:13.369Z,29.92
2022-10-22T15:20:43.827Z,29.86
2022-10-22T15:23:14.213Z,29.81
2022-10-22T15:25:45.857Z,29.69
2022-10-22T15:28:16.239Z,29.81
2022-10-22T15:30:53.167Z,29.86
2022-10-22T15:33:24.005Z,29.79
2022-10-22T15:35:55.077Z,29.79
2022-10-22T15:38:34.076Z,29.73
2022-10-22T15:41:09.086Z,29.76
2022-10-22T15:43:39.468Z,29.38
2022-10-22T15:46:18.641Z,29.69
2022-10-22T15:48:49.184Z,29.56
2022-10-22T15:51:24.295Z,29.71
2022-10-22T15:53:56.451Z,29.69
2022-10-22T15:56:29.486Z,29.72
2022-10-22T15:59:03.673Z,29.37
2022-10-22T16:01:36.091Z,29.63
2022-10-22T16:04:07.539Z,29.66
2022-10-22T16:06:40.865Z,29.61
2022-10-22T16:09:17.512Z,29.60
2022-10-22T16:11:48.546Z,29.43
2022-10-22T16:14:21.530Z,29.58
2022-10-22T16:16:55.235Z,28.61
2022-10-22T16:19:26.896Z,29.44
2022-10-22T16:21:58.166Z,29.50
2022-10-22T16:24:29.414Z,29.48
2022-10-22T16:26:59.948Z,29.51
2022-10-22T16:29:30.414Z,29.50
2022-10-22T16:32:01.372Z,29.49
2022-10-22T16:34:31.939Z,29.53
2022-10-22T16:37:02.438Z,29.51
2022-10-22T16:39:33.309Z,29.53
2022-10-22T16:42:03.709Z,29.54
2022-10-22T16:44:34.214Z,29.53
2022-10-22T16:47:04.665Z,29.51
2022-10-22T16:49:35.082Z,29.47
2022-10-22T16:52:05.659Z,29.54
2022-10-22T16:54:36.026Z,29.46
2022-10-22T16:57:06.502Z,29.51
2022-10-22T16:59:37.687Z,29.49
2022-10-22T17:02:08.245Z,29.39
2022-10-22T17:04:39.770Z,29.36
2022-10-22T17:07:10.123Z,29.63
2022-10-22T17:09:41.105Z,29.73
2022-10-22T17:12:12.240Z,29.76
2022-10-22T17:14:42.627Z,29.79
2022-10-22T17:17:12.977Z,29.81
2022-10-22T17:19:43.425Z,29.82
2022-10-22T17:22:16.216Z,29.83
2022-10-22T17:24:48.800Z,29.80
2022-10-22T17:27:19.100Z,29.48
2022-10-22T17:29:49.538Z,29.78
2022-10-22T17:32:19.885Z,29.79
2022-10-22T17:34:50.327Z,29.78
2022-10-22T17:37:20.697Z,29.74
2022-10-22T17:39:51.125Z,29.75
2022-10-22T17:42:21.675Z,29.74
2022-10-22T17:44:52.425Z,29.67
2022-10-22T17:47:23.252Z,29.65
2022-10-22T17:49:53.786Z,29.73
2022-10-22T17:52:24.490Z,29.69
2022-10-22T17:54:55.698Z,29.71
2022-10-22T17:57:26.152Z,29.70
2022-10-22T17:59:56.519Z,29.70
2022-10-22T18:02:27.353Z,29.70
2022-10-22T18:04:57.811Z,29.70
2022-10-22T18:07:28.592Z,29.69
2022-10-22T18:09:59.076Z,29.66
2022-10-22T18:12:29.501Z,29.62
2022-10-22T18:15:00.371Z,29.66
2022-10-22T18:17:33.558Z,29.66
2022-10-22T18:20:06.877Z,29.65
2022-10-22T18:22:38.042Z,29.60
2022-10-22T18:25:08.843Z,29.45
2022-10-22T18:27:40.045Z,29.63
2022-10-22T18:30:11.054Z,29.61
2022-10-22T18:32:41.404Z,29.62
2022-10-22T18:35:13.793Z,28.67
2022-10-22T18:37:44.670Z,29.59
2022-10-22T18:40:15.307Z,29.59
2022-10-22T18:42:46.200Z,29.58
2022-10-22T18:45:17.624Z,29.53
2022-10-22T18:47:48.277Z,29.56
2022-10-22T18:50:19.294Z,29.49
2022-10-22T18:52:49.988Z,29.56
2022-10-22T18:55:20.562Z,29.52
2022-10-22T18:57:51.066Z,29.55
2022-10-22T19:00:21.793Z,29.54
2022-10-22T19:02:52.092Z,29.54
2022-10-22T19:05:22.481Z,29.51
2022-10-22T19:07:53.230Z,29.51
2022-10-22T19:10:23.606Z,29.53
2022-10-22T19:12:54.186Z,29.50
2022-10-22T19:15:25.230Z,29.12
2022-10-22T19:17:55.794Z,29.48
2022-10-22T19:20:26.626Z,29.37
2022-10-22T19:22:57.723Z,29.47
2022-10-22T19:25:28.187Z,29.46
2022-10-22T19:27:58.866Z,29.30
2022-10-22T19:30:29.596Z,29.42
2022-10-22T19:33:00.312Z,29.40
2022-10-22T19:35:31.415Z,29.27
2022-10-22T19:38:01.785Z,29.38
2022-10-22T19:40:32.278Z,29.27
2022-10-22T19:43:03.160Z,29.34
2022-10-22T19:45:33.582Z,29.32
2022-10-22T19:48:03.955Z,29.33
2022-10-22T19:50:36.196Z,29.33
2022-10-22T19:53:06.539Z,29.33
2022-10-22T19:55:36.909Z,29.32
2022-10-22T19:58:07.427Z,29.32
2022-10-22T20:00:39.594Z,28.70
2022-10-22T20:03:10.569Z,29.32
2022-10-22T20:05:41.185Z,29.30
2022-10-22T20:08:13.413Z,29.18
2022-10-22T20:10:44.307Z,29.30
2022-10-22T20:13:15.555Z,29.27
2022-10-22T20:15:50.129Z,28.74
2022-10-22T20:18:23.419Z,29.26
2022-10-22T20:20:54.700Z,29.25
2022-10-22T20:23:25.479Z,29.25
2022-10-22T20:25:56.008Z,29.24
2022-10-22T20:28:27.259Z,29.20
2022-10-22T20:30:57.917Z,29.23
2022-10-22T20:33:28.921Z,29.14
2022-10-22T20:36:04.647Z,28.87
2022-10-22T20:41:14.015Z,29.01
2022-10-22T20:43:48.845Z,29.16
2022-10-22T20:46:25.056Z,28.57
2022-10-22T20:48:59.717Z,28.16
2022-10-22T20:51:30.921Z,29.10
2022-10-22T20:54:01.777Z,29.01
2022-10-22T20:56:33.034Z,29.09
2022-10-22T20:59:06.748Z,29.06
2022-10-22T21:01:47.782Z,28.52
2022-10-22T21:04:19.396Z,29.08
2022-10-22T21:06:51.223Z,29.03
2022-10-22T21:09:22.428Z,29.01
2022-10-22T21:14:30.804Z,29.03
2022-10-22T21:17:01.711Z,29.00
2022-10-22T21:19:32.323Z,29.05
2022-10-22T21:22:02.821Z,29.05
2022-10-22T21:24:33.195Z,29.04
2022-10-22T21:27:04.972Z,29.04
2022-10-22T21:29:35.431Z,29.00
2022-10-22T21:32:06.042Z,29.00
2022-10-22T21:34:38.869Z,29.01
2022-10-22T21:37:09.892Z,29.00
2022-10-22T21:39:42.054Z,28.99
2022-10-22T21:42:15.865Z,28.98
2022-10-22T21:44:46.686Z,28.93
2022-10-22T21:47:17.497Z,28.96
2022-10-22T21:49:47.912Z,28.82
2022-10-22T21:52:18.403Z,28.84
2022-10-22T21:54:49.076Z,28.95
2022-10-22T21:57:19.627Z,28.91
2022-10-22T21:59:50.432Z,28.92
2022-10-22T22:04:56.912Z,28.90
2022-10-22T22:07:27.511Z,28.70
2022-10-22T22:09:57.967Z,28.51
2022-10-22T22:12:28.785Z,28.88
2022-10-22T22:14:59.175Z,28.54
2022-10-22T22:17:29.632Z,28.90
2022-10-22T22:20:00.104Z,28.88
2022-10-22T22:22:31.238Z,28.90
2022-10-22T22:25:01.623Z,28.86
2022-10-22T22:27:32.816Z,28.82
2022-10-22T22:30:03.214Z,28.88
2022-10-22T22:32:35.180Z,28.84
2022-10-22T22:35:06.837Z,28.83
2022-10-22T22:37:37.313Z,28.50
2022-10-22T22:40:08.292Z,28.70
2022-10-22T22:42:39.066Z,28.81
2022-10-22T22:45:10.035Z,28.78
2022-10-22T22:47:40.699Z,28.79
2022-10-22T22:50:11.389Z,28.77
2022-10-22T22:52:42.472Z,28.65
2022-10-22T22:55:13.091Z,28.77
2022-10-22T22:57:43.754Z,28.74
2022-10-22T23:00:15.181Z,28.77
2022-10-22T23:02:45.517Z,28.56
2022-10-22T23:05:16.129Z,28.59
2022-10-22T23:07:46.761Z,28.62
2022-10-22T23:10:17.259Z,28.41
2022-10-22T23:12:47.731Z,28.73
2022-10-22T23:15:18.507Z,28.78
2022-10-22T23:17:48.916Z,28.82
2022-10-22T23:20:19.436Z,28.84
2022-10-22T23:22:50.542Z,28.92
2022-10-22T23:25:20.955Z,28.90
2022-10-22T23:27:51.689Z,29.00
2022-10-22T23:30:22.166Z,29.04
2022-10-22T23:32:52.565Z,28.99
2022-10-22T23:35:23.123Z,28.97
2022-10-22T23:37:53.550Z,29.17
2022-10-22T23:40:24.162Z,28.83
2022-10-22T23:42:54.758Z,29.07
2022-10-22T23:45:25.690Z,29.01
2022-10-22T23:47:56.289Z,29.32
2022-10-22T23:50:26.775Z,29.32
2022-10-22T23:52:57.431Z,29.31
2022-10-22T23:55:27.784Z,29.38
2022-10-22T23:57:58.254Z,29.43
